createdAt,value
2023-03-16T00:00:10.078Z,9.72
2023-03-16T00:02:39.621Z,9.67
2023-03-16T00:05:09.812Z,9.68
2023-03-16T00:07:39.656Z,9.65
2023-03-16T00:10:09.895Z,9.65
2023-03-16T00:12:38.373Z,9.60
2023-03-16T00:15:06.108Z,9.61
2023-03-16T00:17:36.695Z,9.72
2023-03-16T00:20:09.216Z,9.72
2023-03-16T00:22:37.515Z,9.69
2023-03-16T00:25:04.793Z,9.63
2023-03-16T00:27:32.195Z,9.69
2023-03-16T00:29:59.199Z,9.68
2023-03-16T00:32:29.234Z,9.66
2023-03-16T00:34:56.778Z,9.67
2023-03-16T00:37:26.578Z,9.74
2023-03-16T00:39:56.723Z,9.75
2023-03-16T00:42:29.579Z,9.71
2023-03-16T00:44:58.296Z,9.66
2023-03-16T00:47:31.638Z,9.57
2023-03-16T00:50:00.131Z,9.55
2023-03-16T00:52:28.088Z,9.65
2023-03-16T00:54:56.060Z,9.64
2023-03-16T00:57:25.415Z,9.62
2023-03-16T00:59:52.914Z,9.54
2023-03-16T01:02:23.630Z,9.46
2023-03-16T01:04:52.243Z,9.47
2023-03-16T01:07:19.671Z,9.46
2023-03-16T01:09:47.720Z,9.38
2023-03-16T01:12:17.938Z,9.26
2023-03-16T01:14:48.108Z,9.29
2023-03-16T01:17:16.401Z,9.22
2023-03-16T01:19:44.087Z,9.24
2023-03-16T01:22:13.662Z,9.25
2023-03-16T01:24:45.508Z,9.20
2023-03-16T01:27:14.906Z,9.10
2023-03-16T01:29:43.802Z,9.09
2023-03-16T01:32:15.031Z,9.12
2023-03-16T01:34:42.481Z,9.03
2023-03-16T01:37:12.594Z,9.05
2023-03-16T01:39:40.073Z,9.01
2023-03-16T01:42:07.926Z,9.02
2023-03-16T01:44:55.575Z,8.92
2023-03-16T01:47:24.146Z,8.94
2023-03-16T01:49:55.292Z,8.95
2023-03-16T01:52:27.646Z,8.92
2023-03-16T01:55:03.307Z,8.89
2023-03-16T01:57:37.421Z,8.89
2023-03-16T02:00:23.795Z,8.92
2023-03-16T02:02:57.832Z,8.78
2023-03-16T02:05:49.352Z,8.85
2023-03-16T02:08:18.246Z,8.79
2023-03-16T02:10:46.210Z,8.73
2023-03-16T02:13:15.929Z,8.62
2023-03-16T02:15:50.025Z,8.65
2023-03-16T02:18:17.494Z,8.69
2023-03-16T02:20:55.559Z,8.56
2023-03-16T02:23:25.563Z,8.54
2023-03-16T02:26:01.923Z,8.52
2023-03-16T02:28:38.708Z,8.48
2023-03-16T02:31:07.566Z,8.41
2023-03-16T02:33:36.051Z,8.49
2023-03-16T02:36:03.109Z,8.47
2023-03-16T02:38:30.222Z,8.44
2023-03-16T02:41:14.072Z,8.36
2023-03-16T02:43:48.389Z,8.29
2023-03-16T02:46:18.243Z,8.34
2023-03-16T02:48:51.623Z,8.30
2023-03-16T02:51:18.739Z,8.29
2023-03-16T02:53:47.834Z,8.32
2023-03-16T02:56:22.669Z,8.39
2023-03-16T02:58:52.686Z,8.36
2023-03-16T03:01:19.726Z,8.32
2023-03-16T03:03:49.652Z,8.26
2023-03-16T03:06:19.656Z,8.18
2023-03-16T03:08:49.961Z,8.14
2023-03-16T03:11:20.001Z,8.23
2023-03-16T03:13:50.389Z,8.22
2023-03-16T03:16:19.450Z,8.21
2023-03-16T03:18:49.025Z,8.14
2023-03-16T03:21:19.554Z,8.16
2023-03-16T03:23:48.237Z,8.16
2023-03-16T03:26:18.264Z,8.10
2023-03-16T03:28:46.118Z,7.91
2023-03-16T03:31:22.997Z,7.87
2023-03-16T03:33:50.055Z,7.81
2023-03-16T03:36:22.413Z,7.80
2023-03-16T03:38:50.116Z,7.79
2023-03-16T03:41:17.978Z,7.87
2023-03-16T03:43:45.292Z,7.90
2023-03-16T03:46:12.707Z,7.85
2023-03-16T03:48:39.797Z,7.68
2023-03-16T03:51:07.035Z,7.60
2023-03-16T03:53:36.854Z,7.57
2023-03-16T03:56:04.028Z,7.44
2023-03-16T03:58:31.359Z,7.55
2023-03-16T04:00:58.698Z,7.55
2023-03-16T04:03:26.140Z,7.58
2023-03-16T04:05:53.679Z,7.68
2023-03-16T04:08:22.903Z,7.75
2023-03-16T04:10:51.173Z,7.77
2023-03-16T04:13:18.475Z,7.85
2023-03-16T04:15:47.383Z,7.92
2023-03-16T04:18:14.738Z,7.92
2023-03-16T04:20:42.154Z,7.85
2023-03-16T04:23:09.556Z,7.75
2023-03-16T04:25:38.938Z,7.75
2023-03-16T04:28:06.063Z,7.79
2023-03-16T04:30:36.043Z,7.84
2023-03-16T04:33:05.066Z,7.88
2023-03-16T04:35:32.190Z,7.80
2023-03-16T04:37:59.450Z,7.64
2023-03-16T04:40:27.072Z,7.68
2023-03-16T04:42:55.086Z,7.61
2023-03-16T04:45:24.762Z,7.60
2023-03-16T04:47:54.737Z,7.63
2023-03-16T04:50:24.035Z,7.63
2023-03-16T04:52:52.543Z,7.58
2023-03-16T04:55:20.475Z,7.54
2023-03-16T04:57:47.648Z,7.55
2023-03-16T05:00:22.276Z,7.66
2023-03-16T05:02:52.860Z,7.57
2023-03-16T05:05:21.822Z,7.56
2023-03-16T05:07:49.451Z,7.51
2023-03-16T05:10:19.215Z,7.57
2023-03-16T05:12:46.514Z,7.57
2023-03-16T05:15:14.081Z,7.52
2023-03-16T05:17:42.375Z,7.45
2023-03-16T05:20:16.206Z,7.52
2023-03-16T05:22:45.471Z,7.62
2023-03-16T05:25:16.197Z,7.56
2023-03-16T05:27:48.035Z,7.53
2023-03-16T05:30:16.681Z,7.54
2023-03-16T05:32:44.573Z,7.64
2023-03-16T05:35:15.555Z,7.58
2023-03-16T05:37:43.727Z,7.51
2023-03-16T05:40:19.171Z,7.47
2023-03-16T05:43:00.729Z,7.50
2023-03-16T05:45:29.346Z,7.52
2023-03-16T05:47:58.333Z,7.67
2023-03-16T05:50:27.452Z,7.67
2023-03-16T05:52:54.805Z,7.70
2023-03-16T05:55:23.735Z,7.68
2023-03-16T05:57:51.298Z,7.68
2023-03-16T06:00:19.923Z,7.70
2023-03-16T06:02:48.726Z,7.83
2023-03-16T06:05:17.376Z,7.70
2023-03-16T06:07:45.129Z,7.74
2023-03-16T06:10:14.020Z,7.74
2023-03-16T06:12:41.686Z,7.75
2023-03-16T06:15:10.584Z,7.81
2023-03-16T06:17:39.355Z,7.81
2023-03-16T06:20:11.579Z,7.79
2023-03-16T06:22:40.372Z,7.80
2023-03-16T06:25:10.188Z,7.84
2023-03-16T06:27:37.604Z,7.81
2023-03-16T06:30:07.331Z,7.74
2023-03-16T06:32:34.719Z,7.75
2023-03-16T06:35:03.529Z,7.79
2023-03-16T06:37:32.485Z,7.76
2023-03-16T06:40:00.158Z,7.81
2023-03-16T06:42:27.904Z,7.87
2023-03-16T06:44:55.521Z,7.96
2023-03-16T06:47:22.566Z,7.99
2023-03-16T06:49:51.900Z,8.07
2023-03-16T06:52:18.841Z,8.18
2023-03-16T06:54:45.885Z,8.20
2023-03-16T06:57:12.967Z,8.26
2023-03-16T06:59:40.085Z,8.34
2023-03-16T07:02:07.483Z,8.41
2023-03-16T07:04:34.451Z,8.52
2023-03-16T07:07:03.467Z,8.59
2023-03-16T07:09:31.873Z,8.64
2023-03-16T07:11:59.147Z,8.69
2023-03-16T07:14:26.429Z,8.76
2023-03-16T07:16:53.405Z,8.88
2023-03-16T07:19:20.794Z,8.96
2023-03-16T07:21:48.412Z,9.03
2023-03-16T07:24:15.796Z,9.15
2023-03-16T07:26:43.514Z,9.29
2023-03-16T07:29:10.605Z,9.33
2023-03-16T07:31:38.193Z,9.41
2023-03-16T07:34:05.875Z,9.47
2023-03-16T07:36:35.126Z,9.55
2023-03-16T07:39:03.048Z,9.60
2023-03-16T07:41:32.613Z,9.65
2023-03-16T07:44:00.420Z,9.72
2023-03-16T07:46:27.293Z,9.81
2023-03-16T07:48:54.669Z,9.82
2023-03-16T07:51:22.146Z,9.88
2023-03-16T07:53:49.083Z,9.97
2023-03-16T07:56:16.125Z,10.08
2023-03-16T07:58:43.581Z,10.10
2023-03-16T08:01:12.380Z,10.11
2023-03-16T08:03:40.502Z,10.23
2023-03-16T08:06:07.661Z,10.32
2023-03-16T08:08:37.869Z,10.40
2023-03-16T08:11:08.848Z,10.42
2023-03-16T08:13:36.688Z,10.46
2023-03-16T08:16:05.070Z,10.56
2023-03-16T08:18:32.416Z,10.57
2023-03-16T08:20:59.329Z,10.62
2023-03-16T08:23:26.645Z,10.73
2023-03-16T08:25:54.882Z,10.76
2023-03-16T08:28:22.386Z,10.82
2023-03-16T08:30:51.333Z,10.85
2023-03-16T08:33:22.576Z,10.94
2023-03-16T08:35:50.998Z,11.02
2023-03-16T08:38:19.411Z,11.03
2023-03-16T08:40:48.810Z,11.13
2023-03-16T08:43:17.424Z,11.15
2023-03-16T08:45:47.592Z,11.22
2023-03-16T08:48:15.292Z,11.23
2023-03-16T08:50:44.353Z,11.26
2023-03-16T08:53:13.878Z,11.29
2023-03-16T08:55:41.952Z,11.37
2023-03-16T08:58:10.801Z,11.46
2023-03-16T09:00:40.472Z,11.52
2023-03-16T09:03:10.643Z,11.59
2023-03-16T09:05:41.039Z,11.60
2023-03-16T09:08:10.255Z,11.66
2023-03-16T09:10:40.220Z,11.71
2023-03-16T09:13:09.016Z,11.78
2023-03-16T09:15:37.035Z,11.76
2023-03-16T09:18:04.251Z,11.83
2023-03-16T09:20:33.228Z,11.92
2023-03-16T09:23:00.585Z,11.97
2023-03-16T09:25:28.016Z,12.02
2023-03-16T09:27:55.919Z,12.01
2023-03-16T09:30:23.313Z,12.08
2023-03-16T09:32:51.173Z,12.11
2023-03-16T09:35:21.015Z,12.22
2023-03-16T09:38:04.695Z,12.22
2023-03-16T09:40:32.621Z,12.21
2023-03-16T09:43:21.079Z,12.29
2023-03-16T09:46:03.256Z,12.39
2023-03-16T09:48:32.999Z,12.35
2023-03-16T09:51:02.492Z,12.40
2023-03-16T09:53:34.644Z,12.54
2023-03-16T09:56:03.775Z,12.56
2023-03-16T09:58:32.674Z,12.57
2023-03-16T10:01:14.713Z,12.62
2023-03-16T10:04:01.003Z,12.78
2023-03-16T10:06:28.673Z,12.84
2023-03-16T10:09:28.897Z,12.88
2023-03-16T10:12:01.275Z,12.86
2023-03-16T10:15:08.521Z,12.90
2023-03-16T10:17:44.097Z,12.99
2023-03-16T10:20:40.595Z,13.04
2023-03-16T10:23:26.569Z,13.12
2023-03-16T10:25:55.480Z,13.15
2023-03-16T10:28:24.460Z,13.22
2023-03-16T10:30:54.740Z,13.27
2023-03-16T10:33:26.756Z,13.32
2023-03-16T10:36:13.551Z,13.37
2023-03-16T10:38:43.486Z,13.40
2023-03-16T10:41:26.002Z,13.51
2023-03-16T10:44:07.702Z,13.63
2023-03-16T10:46:48.729Z,13.73
2023-03-16T10:49:27.327Z,13.75
2023-03-16T10:51:58.225Z,13.76
2023-03-16T10:54:33.147Z,13.84
2023-03-16T10:57:01.216Z,13.91
2023-03-16T10:59:32.119Z,13.92
2023-03-16T11:02:00.716Z,13.96
2023-03-16T11:04:32.623Z,14.00
2023-03-16T11:07:00.150Z,14.07
2023-03-16T11:09:37.555Z,14.14
2023-03-16T11:12:30.411Z,14.19
2023-03-16T11:15:09.328Z,14.22
2023-03-16T11:17:48.312Z,14.24
2023-03-16T11:20:20.087Z,14.31
2023-03-16T11:22:48.718Z,14.33
2023-03-16T11:25:29.954Z,14.37
2023-03-16T11:28:41.944Z,14.44
2023-03-16T11:31:53.807Z,14.53
2023-03-16T11:34:28.507Z,14.58
2023-03-16T11:37:00.180Z,14.67
2023-03-16T11:39:54.765Z,14.77
2023-03-16T11:42:41.896Z,14.78
2023-03-16T11:45:17.862Z,14.87
2023-03-16T11:47:50.747Z,14.97
2023-03-16T11:50:35.123Z,14.96
2023-03-16T11:53:15.815Z,14.90
2023-03-16T11:55:48.936Z,15.01
2023-03-16T11:58:37.920Z,15.03
2023-03-16T12:01:14.494Z,15.03
2023-03-16T12:03:44.364Z,15.15
2023-03-16T12:06:31.013Z,15.20
2023-03-16T12:09:21.217Z,15.18
2023-03-16T12:11:49.868Z,15.19
2023-03-16T12:14:31.063Z,15.20
2023-03-16T12:17:10.126Z,15.20
2023-03-16T12:20:06.103Z,15.21
2023-03-16T12:22:48.920Z,15.26
2023-03-16T12:25:24.247Z,15.31
2023-03-16T12:27:58.095Z,15.40
2023-03-16T12:30:49.725Z,15.38
2023-03-16T12:33:28.043Z,15.46
2023-03-16T12:36:35.391Z,15.37
2023-03-16T12:39:09.451Z,15.41
2023-03-16T12:41:57.751Z,15.54
2023-03-16T12:44:46.873Z,15.46
2023-03-16T12:47:35.675Z,15.53
2023-03-16T12:50:13.014Z,15.61
2023-03-16T12:52:53.442Z,15.57
2023-03-16T12:55:39.166Z,15.62
2023-03-16T12:58:09.529Z,15.57
2023-03-16T13:00:42.783Z,15.57
2023-03-16T13:03:23.403Z,15.54
2023-03-16T13:05:59.822Z,15.66
2023-03-16T13:08:30.819Z,15.65
2023-03-16T13:11:06.657Z,15.58
2023-03-16T13:13:34.465Z,15.71
2023-03-16T13:16:10.466Z,15.74
2023-03-16T13:18:45.189Z,15.90
2023-03-16T13:21:34.988Z,15.91
2023-03-16T13:24:20.595Z,15.93
2023-03-16T13:26:55.668Z,15.88
2023-03-16T13:29:27.411Z,15.94
2023-03-16T13:31:58.061Z,16.09
2023-03-16T13:34:31.978Z,16.00
2023-03-16T13:37:01.764Z,15.94
2023-03-16T13:39:30.957Z,16.05
2023-03-16T13:42:16.943Z,16.04
2023-03-16T13:44:44.743Z,16.02
2023-03-16T13:47:17.170Z,16.12
2023-03-16T13:49:47.680Z,16.16
2023-03-16T13:52:31.850Z,16.21
2023-03-16T13:55:02.121Z,16.26
2023-03-16T13:57:32.775Z,16.25
2023-03-16T14:00:44.138Z,16.23
2023-03-16T14:03:20.211Z,16.15
2023-03-16T14:05:47.914Z,16.11
2023-03-16T14:08:26.737Z,15.96
2023-03-16T14:11:00.916Z,16.02
2023-03-16T14:13:27.909Z,16.05
2023-03-16T14:16:03.224Z,15.97
2023-03-16T14:19:10.476Z,15.94
2023-03-16T14:21:38.519Z,15.92
2023-03-16T14:24:08.031Z,15.92
2023-03-16T14:26:48.189Z,15.89
2023-03-16T14:29:26.482Z,15.89
2023-03-16T14:32:01.671Z,15.75
2023-03-16T14:34:36.854Z,15.74
2023-03-16T14:37:09.753Z,15.74
2023-03-16T14:39:37.521Z,15.75
2023-03-16T14:42:07.598Z,15.77
2023-03-16T14:44:37.414Z,15.75
2023-03-16T14:47:06.273Z,15.81
2023-03-16T14:49:38.842Z,15.84
2023-03-16T14:52:32.064Z,15.96
2023-03-16T14:55:03.297Z,15.87
2023-03-16T14:57:31.288Z,15.88
2023-03-16T14:59:58.970Z,15.90
2023-03-16T15:02:30.063Z,15.82
2023-03-16T15:05:00.754Z,15.86
2023-03-16T15:07:33.002Z,15.90
2023-03-16T15:10:07.503Z,15.86
2023-03-16T15:12:38.212Z,15.87
2023-03-16T15:15:19.728Z,15.91
2023-03-16T15:17:47.121Z,15.85
2023-03-16T15:20:17.109Z,15.87
2023-03-16T15:22:46.476Z,15.78
2023-03-16T15:25:25.004Z,15.84
2023-03-16T15:27:53.226Z,15.94
2023-03-16T15:30:24.754Z,15.93
2023-03-16T15:32:52.214Z,15.95
2023-03-16T15:35:20.444Z,15.91
2023-03-16T15:37:47.914Z,15.91
2023-03-16T15:40:28.583Z,15.87
2023-03-16T15:42:56.095Z,15.78
2023-03-16T15:45:24.448Z,15.76
2023-03-16T15:47:53.918Z,15.66
2023-03-16T15:50:24.910Z,15.71
2023-03-16T15:53:02.226Z,15.70
2023-03-16T15:55:37.886Z,15.76
2023-03-16T15:58:06.624Z,15.80
2023-03-16T16:00:36.053Z,15.78
2023-03-16T16:03:05.717Z,15.77
2023-03-16T16:05:33.524Z,15.74
2023-03-16T16:08:02.275Z,15.69
2023-03-16T16:10:30.611Z,15.66
2023-03-16T16:12:59.737Z,15.57
2023-03-16T16:15:31.583Z,15.55
2023-03-16T16:18:19.820Z,15.46
2023-03-16T16:20:46.180Z,15.41
2023-03-16T16:23:14.121Z,15.42
2023-03-16T16:25:42.647Z,15.46
2023-03-16T16:28:19.197Z,15.54
2023-03-16T16:30:46.509Z,15.57
2023-03-16T16:33:36.751Z,15.69
2023-03-16T16:36:07.506Z,15.78
2023-03-16T16:38:34.480Z,15.89
2023-03-16T16:41:06.966Z,15.91
2023-03-16T16:43:39.131Z,15.88
2023-03-16T16:46:15.792Z,15.89
2023-03-16T16:48:46.443Z,15.65
2023-03-16T16:51:35.085Z,15.81
2023-03-16T16:54:02.752Z,16.06
2023-03-16T16:56:35.890Z,15.84
2023-03-16T16:59:19.261Z,15.55
2023-03-16T17:01:47.688Z,15.27
2023-03-16T17:04:19.994Z,15.08
2023-03-16T17:06:46.972Z,14.95
2023-03-16T17:09:14.471Z,14.74
2023-03-16T17:11:43.505Z,14.65
2023-03-16T17:14:16.865Z,14.62
2023-03-16T17:16:45.006Z,14.54
2023-03-16T17:19:23.508Z,14.43
2023-03-16T17:21:52.027Z,14.44
2023-03-16T17:24:19.077Z,14.38
2023-03-16T17:26:52.925Z,14.32
2023-03-16T17:29:23.137Z,14.27
2023-03-16T17:31:51.373Z,14.23
2023-03-16T17:34:29.279Z,14.17
2023-03-16T17:36:56.547Z,14.11
2023-03-16T17:39:26.357Z,14.06
2023-03-16T17:42:09.850Z,14.00
2023-03-16T17:44:44.324Z,13.95
2023-03-16T17:47:15.755Z,13.83
2023-03-16T17:49:42.879Z,13.83
2023-03-16T17:52:19.270Z,13.76
2023-03-16T17:54:47.943Z,13.68
2023-03-16T17:57:22.376Z,13.65
2023-03-16T17:59:49.105Z,13.57
2023-03-16T18:03:00.723Z,13.53
2023-03-16T18:05:31.245Z,13.45
2023-03-16T18:08:28.172Z,13.48
2023-03-16T18:10:59.530Z,13.33
2023-03-16T18:13:33.392Z,13.36
2023-03-16T18:16:02.163Z,13.31
2023-03-16T18:18:32.928Z,13.25
2023-03-16T18:21:00.750Z,13.21
2023-03-16T18:23:34.716Z,13.18
2023-03-16T18:26:06.475Z,13.12
2023-03-16T18:28:34.671Z,13.15
2023-03-16T18:31:04.002Z,13.04
2023-03-16T18:33:35.614Z,13.02
2023-03-16T18:36:17.855Z,13.03
2023-03-16T18:38:48.490Z,12.93
2023-03-16T18:41:24.916Z,12.98
2023-03-16T18:43:54.636Z,12.98
2023-03-16T18:46:26.128Z,12.92
2023-03-16T18:48:55.810Z,12.92
2023-03-16T18:51:23.967Z,12.90
2023-03-16T18:53:54.405Z,12.89
2023-03-16T18:56:27.325Z,12.84
2023-03-16T18:58:56.328Z,12.86
2023-03-16T19:01:28.342Z,12.80
2023-03-16T19:03:57.382Z,12.79
2023-03-16T19:06:29.931Z,12.76
2023-03-16T19:09:04.012Z,12.72
2023-03-16T19:11:31.681Z,12.71
2023-03-16T19:13:58.641Z,12.70
2023-03-16T19:16:25.934Z,12.68
2023-03-16T19:18:53.035Z,12.68
2023-03-16T19:21:23.401Z,12.69
2023-03-16T19:24:00.542Z,12.62
2023-03-16T19:26:29.424Z,12.62
2023-03-16T19:28:57.051Z,12.60
2023-03-16T19:31:29.370Z,12.59
2023-03-16T19:33:57.201Z,12.55
2023-03-16T19:36:27.279Z,12.54
2023-03-16T19:38:54.412Z,12.55
2023-03-16T19:41:27.070Z,12.54
2023-03-16T19:43:57.918Z,12.44
2023-03-16T19:46:29.629Z,12.46
2023-03-16T19:48:56.991Z,12.39
2023-03-16T19:51:25.613Z,12.34
2023-03-16T19:53:53.074Z,12.38
2023-03-16T19:56:22.073Z,12.33
2023-03-16T19:58:51.884Z,12.35
2023-03-16T20:01:32.305Z,12.29
2023-03-16T20:03:59.833Z,12.34
2023-03-16T20:06:27.480Z,12.34
2023-03-16T20:08:54.620Z,12.28
2023-03-16T20:11:32.633Z,12.25
2023-03-16T20:14:00.691Z,12.20
2023-03-16T20:16:33.132Z,12.22
2023-03-16T20:19:03.280Z,12.16
2023-03-16T20:21:32.980Z,12.11
2023-03-16T20:24:00.182Z,12.12
2023-03-16T20:26:32.411Z,12.04
2023-03-16T20:29:01.090Z,12.05
2023-03-16T20:31:31.523Z,12.07
2023-03-16T20:33:59.022Z,12.07
2023-03-16T20:36:27.318Z,12.09
2023-03-16T20:38:54.090Z,12.01
2023-03-16T20:41:33.006Z,12.02
2023-03-16T20:44:01.899Z,12.02
2023-03-16T20:46:31.477Z,11.99
2023-03-16T20:49:00.832Z,11.96
2023-03-16T20:51:28.925Z,11.95
2023-03-16T20:53:55.572Z,11.87
2023-03-16T20:56:25.930Z,11.91
2023-03-16T20:58:56.320Z,11.82
2023-03-16T21:01:24.869Z,11.83
2023-03-16T21:03:55.359Z,11.88
2023-03-16T21:06:28.690Z,11.86
2023-03-16T21:08:57.632Z,11.88
2023-03-16T21:11:42.379Z,11.84
2023-03-16T21:14:23.033Z,11.84
2023-03-16T21:16:51.074Z,11.81
2023-03-16T21:19:21.860Z,11.84
2023-03-16T21:21:48.967Z,11.88
2023-03-16T21:24:16.193Z,11.82
2023-03-16T21:26:45.483Z,11.81
2023-03-16T21:29:17.192Z,11.83
2023-03-16T21:31:44.647Z,11.79
2023-03-16T21:34:28.402Z,11.74
2023-03-16T21:36:55.350Z,11.77
2023-03-16T21:39:25.333Z,11.78
2023-03-16T21:41:53.859Z,11.72
2023-03-16T21:44:23.823Z,11.75
2023-03-16T21:46:51.250Z,11.72
2023-03-16T21:49:18.495Z,11.71
2023-03-16T21:51:46.060Z,11.74
2023-03-16T21:54:15.492Z,11.71
2023-03-16T21:56:44.087Z,11.72
2023-03-16T21:59:11.935Z,11.71
2023-03-16T22:01:50.960Z,11.70
2023-03-16T22:04:25.598Z,11.70
2023-03-16T22:06:52.656Z,11.71
2023-03-16T22:09:23.892Z,11.69
2023-03-16T22:11:51.121Z,11.66
2023-03-16T22:14:19.257Z,11.65
2023-03-16T22:16:46.209Z,11.67
2023-03-16T22:19:14.793Z,11.63
2023-03-16T22:21:44.025Z,11.67
2023-03-16T22:24:26.547Z,11.68
2023-03-16T22:26:54.021Z,11.65
2023-03-16T22:29:29.442Z,11.64
2023-03-16T22:31:59.728Z,11.63
2023-03-16T22:34:31.625Z,11.66
2023-03-16T22:37:00.890Z,11.65
2023-03-16T22:39:31.057Z,11.62
2023-03-16T22:41:58.107Z,11.60
2023-03-16T22:44:25.052Z,11.57
2023-03-16T22:46:52.061Z,11.60
2023-03-16T22:49:25.910Z,11.60
2023-03-16T22:51:56.428Z,11.57
2023-03-16T22:54:27.689Z,11.61
2023-03-16T22:56:54.713Z,11.65
2023-03-16T22:59:27.856Z,11.64
2023-03-16T23:01:54.769Z,11.67
2023-03-16T23:04:24.902Z,11.67
2023-03-16T23:06:53.860Z,11.65
2023-03-16T23:09:22.127Z,11.64
2023-03-16T23:11:54.148Z,11.69
2023-03-16T23:14:24.580Z,11.67
2023-03-16T23:16:53.690Z,11.68
2023-03-16T23:19:27.644Z,11.65
2023-03-16T23:21:58.092Z,11.68
2023-03-16T23:24:25.130Z,11.66
2023-03-16T23:26:54.319Z,11.69
2023-03-16T23:29:24.099Z,11.71
2023-03-16T23:31:52.829Z,11.72
2023-03-16T23:34:23.492Z,11.72
2023-03-16T23:36:52.048Z,11.72
2023-03-16T23:39:19.283Z,11.74
2023-03-16T23:41:51.283Z,11.77
2023-03-16T23:44:26.449Z,11.79
2023-03-16T23:46:54.214Z,11.77
2023-03-16T23:49:25.578Z,11.80
2023-03-16T23:51:55.773Z,11.82
2023-03-16T23:54:26.238Z,11.78
2023-03-16T23:56:55.432Z,11.88
2023-03-16T23:59:24.647Z,11.83
